Time;durP1;ratioP1;P1;durP2;ratioP2;P2;SDS_P1;SDS_P2;PMS_P1;PMS_P2;Temp;Humidity;BMP_temperature;BMP_pressure;BME280_temperature;BME280_humidity;BME280_pressure;Samples;Min_cycle;Max_cycle;Signal;HPM_P1;HPM_P2
2021/09/08 00:02:05;;;;;;;25.08;16.83;;;;;;;16.40;85.81;102152.44;6178031;23;20013;-78
2021/09/08 00:04:38;;;;;;;28.25;16.92;;;;;;;16.31;86.32;102155.84;6183895;23;20012;-77
2021/09/08 00:07:04;;;;;;;23.08;15.55;;;;;;;16.28;86.60;102155.81;6184368;23;20009;-76
2021/09/08 00:09:29;;;;;;;24.08;16.38;;;;;;;16.27;86.84;102150.50;6182691;23;20290;-77
2021/09/08 00:11:55;;;;;;;25.58;16.77;;;;;;;16.24;86.83;102142.50;6183196;23;20009;-77
2021/09/08 00:14:20;;;;;;;26.92;17.50;;;;;;;16.22;86.76;102145.09;6182486;23;20001;-77
2021/09/08 00:16:46;;;;;;;24.83;16.60;;;;;;;16.19;87.30;102145.94;6185734;23;20036;-78
2021/09/08 00:19:11;;;;;;;30.27;17.80;;;;;;;16.15;87.70;102140.56;6185095;23;20932;-78
2021/09/08 00:21:36;;;;;;;25.42;18.00;;;;;;;16.11;88.07;102136.97;6184623;23;20012;-77
2021/09/08 00:24:02;;;;;;;26.45;17.58;;;;;;;16.14;87.45;102131.72;6184595;23;20043;-77
2021/09/08 00:26:27;;;;;;;27.75;16.67;;;;;;;16.15;87.29;102120.22;6184964;23;20005;-76
2021/09/08 00:28:53;;;;;;;28.52;17.95;;;;;;;16.12;87.50;102125.50;6186245;23;19997;-77
2021/09/08 00:31:22;;;;;;;27.65;18.73;;;;;;;16.11;87.35;102113.06;6157551;23;20428;-78
2021/09/08 00:33:48;;;;;;;25.25;16.40;;;;;;;16.14;87.29;102109.56;6184764;23;20019;-77
2021/09/08 00:36:13;;;;;;;28.40;18.52;;;;;;;16.18;86.89;102107.00;6185325;23;20072;-76
2021/09/08 00:38:39;;;;;;;29.65;17.02;;;;;;;16.26;86.28;102103.53;6185758;23;20009;-77
2021/09/08 00:41:04;;;;;;;24.50;17.02;;;;;;;16.28;85.76;102096.50;6184975;23;20082;-78
2021/09/08 00:43:29;;;;;;;29.35;17.67;;;;;;;16.34;85.01;102091.25;6183216;23;20008;-77
2021/09/08 00:46:16;;;;;;;26.60;17.33;;;;;;;16.40;84.54;102086.03;6185366;23;20437;-77
2021/09/08 00:48:41;;;;;;;25.23;16.00;;;;;;;16.40;84.24;102090.44;6183953;23;20009;-78
2021/09/08 00:51:07;;;;;;;25.98;16.20;;;;;;;16.41;84.01;102085.13;6185051;23;20012;-78
2021/09/08 00:53:34;;;;;;;22.90;16.92;;;;;;;16.37;84.28;102087.75;6183200;23;20005;-76
2021/09/08 00:56:21;;;;;;;24.73;17.38;;;;;;;16.31;84.28;102088.56;6185841;23;20373;-76
2021/09/08 00:58:47;;;;;;;26.15;17.48;;;;;;;16.23;84.51;102082.25;6184704;23;20079;-77
2021/09/08 01:01:12;;;;;;;24.85;15.85;;;;;;;16.16;85.00;102084.81;6179745;23;20424;-76
2021/09/08 01:03:37;;;;;;;24.10;16.83;;;;;;;16.15;84.78;102072.41;6183330;23;20152;-77
2021/09/08 01:06:03;;;;;;;26.83;16.77;;;;;;;16.15;84.66;102063.56;6185493;23;20060;-77
2021/09/08 01:08:28;;;;;;;24.10;16.45;;;;;;;16.23;84.73;102069.00;6184529;23;20452;-77
2021/09/08 01:10:54;;;;;;;26.20;17.52;;;;;;;16.29;84.37;102071.69;6184527;23;20044;-77
2021/09/08 01:13:20;;;;;;;23.67;16.50;;;;;;;16.33;83.74;102061.16;6184610;23;20005;-78
2021/09/08 01:16:05;;;;;;;28.58;17.55;;;;;;;16.33;84.10;102062.91;6184595;23;20437;-78
2021/09/08 01:18:33;;;;;;;27.02;16.85;;;;;;;16.34;83.60;102060.25;6183969;23;20015;-77
2021/09/08 01:21:14;;;;;;;25.90;16.85;;;;;;;16.35;83.38;102066.47;6184502;23;20024;-76
2021/09/08 01:23:40;;;;;;;27.08;16.02;;;;;;;16.28;83.79;102059.31;6184431;23;20013;-77
2021/09/08 01:26:05;;;;;;;26.65;16.80;;;;;;;16.23;84.02;102061.03;6182354;23;20012;-77
2021/09/08 01:28:31;;;;;;;26.98;17.45;;;;;;;16.19;84.16;102063.63;6157300;23;20001;-78
2021/09/08 01:30:58;;;;;;;26.95;17.30;;;;;;;16.14;84.42;102060.03;6184626;23;20424;-76
2021/09/08 01:33:24;;;;;;;27.88;17.55;;;;;;;16.12;84.46;102059.09;6183408;23;20009;-76
2021/09/08 01:35:49;;;;;;;22.98;17.13;;;;;;;16.09;84.81;102058.16;6182784;23;20012;-77
2021/09/08 01:38:15;;;;;;;28.70;18.23;;;;;;;16.07;84.61;102058.16;6183561;23;20001;-79
2021/09/08 01:40:41;;;;;;;25.38;16.13;;;;;;;16.05;84.45;102051.94;6183343;23;20432;-77
2021/09/08 01:43:06;;;;;;;23.98;16.50;;;;;;;16.05;84.49;102051.94;6184574;23;20011;-77
2021/09/08 01:45:32;;;;;;;30.23;17.02;;;;;;;16.02;84.33;102057.22;6183465;23;20005;-78
2021/09/08 01:47:58;;;;;;;26.35;17.25;;;;;;;15.96;84.82;102052.69;6183782;23;20023;-76
2021/09/08 01:50:24;;;;;;;27.52;17.33;;;;;;;15.94;84.70;102053.53;6185168;23;20021;-76
2021/09/08 01:52:50;;;;;;;29.65;18.10;;;;;;;15.88;85.07;102056.13;6183771;23;20498;-78
2021/09/08 01:55:35;;;;;;;29.08;18.83;;;;;;;15.86;85.38;102050.78;6183041;23;20047;-77
2021/09/08 01:58:08;;;;;;;23.95;17.08;;;;;;;15.82;84.97;102054.28;6184618;23;20009;-76
2021/09/08 02:00:34;;;;;;;25.77;18.17;;;;;;;15.75;85.52;102053.25;6179551;23;20017;-78
2021/09/08 02:02:59;;;;;;;27.98;17.90;;;;;;;15.72;85.52;102047.91;6155590;23;20464;-77
2021/09/08 02:05:25;;;;;;;27.75;18.15;;;;;;;15.65;86.16;102051.31;6184438;23;20048;-78
2021/09/08 02:07:50;;;;;;;30.10;17.95;;;;;;;15.61;85.91;102052.16;6184912;23;20008;-76
2021/09/08 02:10:16;;;;;;;27.90;18.83;;;;;;;15.57;86.19;102052.97;6183564;23;20009;-77
2021/09/08 02:12:42;;;;;;;30.48;17.90;;;;;;;15.54;86.21;102058.25;6185157;23;20009;-76
2021/09/08 02:15:08;;;;;;;31.17;18.38;;;;;;;15.49;86.49;102060.81;6182631;23;20036;-76
2021/09/08 02:17:53;;;;;;;27.67;17.33;;;;;;;15.46;86.69;102059.03;6183297;23;20001;-78
2021/09/08 02:20:19;;;;;;;27.25;16.83;;;;;;;15.51;86.42;102053.78;6184061;23;20089;-77
2021/09/08 02:22:44;;;;;;;34.22;19.42;;;;;;;15.51;86.31;102049.34;6158715;23;20451;-78
2021/09/08 02:25:10;;;;;;;27.08;18.15;;;;;;;15.47;86.44;102047.53;6182060;23;20001;-77
2021/09/08 02:27:35;;;;;;;28.85;18.83;;;;;;;15.44;86.67;102044.84;6183959;23;20012;-77
2021/09/08 02:30:01;;;;;;;29.17;19.30;;;;;;;15.43;86.90;102044.81;6184172;23;20076;-78
2021/09/08 02:32:46;;;;;;;31.38;19.35;;;;;;;15.35;87.38;102057.94;6182305;23;20071;-77
2021/09/08 02:35:14;;;;;;;27.00;18.35;;;;;;;15.28;87.67;102050.75;6182836;23;20004;-77
2021/09/08 02:37:40;;;;;;;32.03;20.40;;;;;;;15.21;88.09;102059.50;6183089;23;20079;-76
2021/09/08 02:40:06;;;;;;;30.67;19.15;;;;;;;15.11;88.63;102048.72;6158147;23;20372;-76
2021/09/08 02:42:32;;;;;;;30.55;19.85;;;;;;;15.05;88.95;102061.84;6183585;23;20004;-76
2021/09/08 02:44:57;;;;;;;34.05;19.98;;;;;;;14.98;89.18;102055.56;6183146;23;20100;-77
2021/09/08 02:47:22;;;;;;;32.20;19.67;;;;;;;14.90;89.07;102054.53;6183854;23;20001;-80
2021/09/08 02:49:48;;;;;;;30.98;19.63;;;;;;;14.84;89.53;102055.31;6183853;23;20016;-78
2021/09/08 02:52:13;;;;;;;35.22;20.75;;;;;;;14.77;89.82;102053.44;6183388;23;20012;-77
2021/09/08 02:54:39;;;;;;;29.02;19.20;;;;;;;14.71;89.83;102057.72;6183497;23;20047;-78
2021/09/08 02:57:04;;;;;;;34.25;20.30;;;;;;;14.64;90.25;102054.06;6182909;23;20017;-76
2021/09/08 02:59:29;;;;;;;32.35;20.58;;;;;;;14.61;90.62;102052.19;6183834;23;20005;-77
2021/09/08 03:01:55;;;;;;;33.25;20.98;;;;;;;14.57;90.34;102044.16;6177329;23;20012;-77
2021/09/08 03:04:20;;;;;;;32.97;21.02;;;;;;;14.53;90.84;102043.22;6182296;23;20013;-78
2021/09/08 03:06:48;;;;;;;33.85;20.73;;;;;;;14.49;90.96;102042.25;6183637;23;20302;-77
2021/09/08 03:09:15;;;;;;;32.50;20.67;;;;;;;14.47;91.28;102043.09;6182739;23;19997;-77
2021/09/08 03:11:42;;;;;;;34.67;20.67;;;;;;;14.45;91.41;102034.22;6182644;23;20033;-76
2021/09/08 03:14:07;;;;;;;32.38;21.00;;;;;;;14.48;90.89;102028.97;6183459;23;20492;-78
2021/09/08 03:16:36;;;;;;;31.98;20.73;;;;;;;14.51;90.93;102029.03;6183470;23;20032;-78
2021/09/08 03:19:01;;;;;;;37.70;22.67;;;;;;;14.50;91.55;102022.84;6182586;23;20080;-77
2021/09/08 03:21:26;;;;;;;33.25;22.42;;;;;;;14.48;92.00;102024.56;6183555;23;20037;-78
2021/09/08 03:23:52;;;;;;;37.55;23.02;;;;;;;14.44;92.17;102022.72;6180197;23;20413;-78
2021/09/08 03:26:18;;;;;;;38.70;23.20;;;;;;;14.42;92.22;102016.53;6183466;23;20088;-77
2021/09/08 03:28:44;;;;;;;40.78;23.85;;;;;;;14.40;92.19;102014.69;6182917;23;20080;-77
2021/09/08 03:31:29;;;;;;;36.63;24.27;;;;;;;14.37;91.85;102010.25;6183796;23;20024;-77
2021/09/08 03:33:55;;;;;;;35.90;22.38;;;;;;;14.36;92.02;102012.84;6183240;23;20013;-77
2021/09/08 03:36:20;;;;;;;39.13;23.17;;;;;;;14.33;91.96;102009.28;6184169;23;20333;-77
2021/09/08 03:38:46;;;;;;;37.80;22.33;;;;;;;14.31;91.78;102010.09;6181705;23;20084;-77
2021/09/08 03:41:11;;;;;;;34.80;21.38;;;;;;;14.28;91.89;102010.03;6183374;23;20001;-76
2021/09/08 03:43:36;;;;;;;40.65;23.38;;;;;;;14.25;92.04;102012.66;6182825;23;20432;-78
2021/09/08 03:46:05;;;;;;;35.53;22.73;;;;;;;14.23;92.25;102011.69;6184068;23;20005;-76
2021/09/08 03:48:31;;;;;;;34.67;21.77;;;;;;;14.19;92.17;102008.13;6182281;23;20001;-77
2021/09/08 03:51:13;;;;;;;39.47;23.70;;;;;;;14.14;92.22;102009.78;6185742;23;20000;-77
2021/09/08 03:53:38;;;;;;;41.03;24.02;;;;;;;14.11;92.76;102007.06;6185076;23;20052;-76
2021/09/08 03:56:04;;;;;;;33.88;22.85;;;;;;;14.05;92.71;102005.16;6185443;23;20013;-75
2021/09/08 03:58:29;;;;;;;41.25;23.27;;;;;;;14.04;92.92;102003.41;6184945;23;20032;-76
2021/09/08 04:01:15;;;;;;;40.53;23.67;;;;;;;14.01;93.24;102013.91;6179596;23;20009;-78
2021/09/08 04:03:40;;;;;;;38.30;24.77;;;;;;;13.98;93.46;102001.53;6185773;23;20008;-77
2021/09/08 04:06:06;;;;;;;44.28;24.63;;;;;;;13.95;93.25;102001.44;6186283;23;20063;-76
2021/09/08 04:08:51;;;;;;;40.55;22.67;;;;;;;13.91;93.21;101999.59;6184995;23;20005;-76
2021/09/08 04:11:16;;;;;;;44.53;24.98;;;;;;;13.89;93.27;101997.75;6184362;23;20064;-76
2021/09/08 04:13:42;;;;;;;39.83;23.55;;;;;;;13.90;93.27;101996.91;6184518;23;20045;-76
2021/09/08 04:16:07;;;;;;;38.13;24.00;;;;;;;13.89;93.41;101989.81;6184764;23;20083;-77
2021/09/08 04:18:33;;;;;;;36.10;22.27;;;;;;;13.91;93.22;101988.13;6183496;23;20005;-78
2021/09/08 04:20:58;;;;;;;36.72;23.85;;;;;;;13.94;93.01;101986.41;6153761;23;20088;-77
2021/09/08 04:23:24;;;;;;;38.10;23.13;;;;;;;14.02;93.08;101983.94;6155542;23;20096;-77
2021/09/08 04:26:09;;;;;;;36.60;24.17;;;;;;;14.08;93.24;101981.44;6155002;23;20076;-76
2021/09/08 04:28:34;;;;;;;37.83;23.38;;;;;;;14.11;93.00;101980.59;6154232;23;20001;-76
2021/09/08 04:31:00;;;;;;;38.50;24.77;;;;;;;14.09;92.92;101980.53;6154963;23;20089;-76
2021/09/08 04:33:25;;;;;;;41.33;23.88;;;;;;;14.07;92.96;101978.75;6155243;23;20009;-77
2021/09/08 04:35:54;;;;;;;38.58;23.40;;;;;;;14.07;92.91;101984.94;6155822;23;20016;-77
2021/09/08 04:38:21;;;;;;;43.42;24.95;;;;;;;14.01;93.06;101984.78;6153509;23;20048;-78
2021/09/08 04:40:47;;;;;;;43.42;24.73;;;;;;;13.99;93.20;101979.47;6154043;23;20028;-78
2021/09/08 04:43:13;;;;;;;39.42;24.17;;;;;;;13.96;93.48;101981.19;6129701;23;20009;-76
2021/09/08 04:45:39;;;;;;;40.55;25.05;;;;;;;13.96;93.09;101973.25;6155682;23;20372;-77
2021/09/08 04:48:31;;;;;;;39.92;23.83;;;;;;;13.95;93.48;101976.75;6152694;23;20001;-77
2021/09/08 04:50:56;;;;;;;38.15;23.45;;;;;;;13.94;93.46;101974.94;6154274;23;20024;-77
2021/09/08 04:53:22;;;;;;;37.95;24.13;;;;;;;13.96;93.50;101975.88;6155652;23;20005;-76
2021/09/08 04:55:48;;;;;;;33.78;21.58;;;;;;;13.98;93.13;101974.16;6155098;23;20005;-78
2021/09/08 04:58:14;;;;;;;35.40;23.05;;;;;;;13.98;93.30;101968.88;6155141;23;20089;-77
2021/09/08 05:00:40;;;;;;;34.17;22.83;;;;;;;13.98;93.36;101969.78;6149258;23;20008;-77
2021/09/08 05:03:06;;;;;;;37.40;22.92;;;;;;;14.02;93.12;101965.41;6154801;23;20025;-76
2021/09/08 05:05:31;;;;;;;34.33;22.05;;;;;;;14.07;92.75;101974.34;6129671;23;20345;-78
2021/09/08 05:07:57;;;;;;;34.80;23.25;;;;;;;14.09;92.83;101972.59;6155092;23;20001;-78
2021/09/08 05:10:22;;;;;;;33.00;21.50;;;;;;;14.13;92.68;101970.94;6154384;23;20017;-78
2021/09/08 05:12:48;;;;;;;32.97;21.45;;;;;;;14.16;92.72;101969.25;6155433;23;20005;-78
2021/09/08 05:15:14;;;;;;;33.95;22.00;;;;;;;14.17;92.44;101964.81;6157383;23;20452;-77
2021/09/08 05:17:39;;;;;;;32.72;20.80;;;;;;;14.22;92.31;101962.28;6154309;23;20008;-78
2021/09/08 05:20:26;;;;;;;34.60;23.35;;;;;;;14.24;91.93;101957.91;6155611;23;20001;-77
2021/09/08 05:22:52;;;;;;;35.03;21.17;;;;;;;14.27;91.93;101955.31;6179852;23;20015;-77
2021/09/08 05:25:17;;;;;;;46.13;22.67;;;;;;;14.26;92.04;101956.19;6182318;23;20005;-77
2021/09/08 05:27:42;;;;;;;36.63;21.88;;;;;;;14.29;91.88;101959.75;6184077;23;20004;-78
2021/09/08 05:30:28;;;;;;;34.28;20.95;;;;;;;14.31;91.91;101957.16;6184011;23;20032;-76
2021/09/08 05:32:54;;;;;;;33.42;21.33;;;;;;;14.33;91.65;101950.13;6182839;23;20013;-76
2021/09/08 05:35:19;;;;;;;31.00;21.38;;;;;;;14.38;91.59;101963.44;6184313;23;20031;-75
2021/09/08 05:37:45;;;;;;;32.22;21.02;;;;;;;14.40;91.43;101954.69;6185065;23;20455;-77
2021/09/08 05:40:11;;;;;;;34.95;22.08;;;;;;;14.41;91.20;101953.81;6183711;23;20473;-78
2021/09/08 05:42:37;;;;;;;29.00;20.23;;;;;;;14.48;91.12;101950.41;6183625;23;20049;-78
2021/09/08 05:45:03;;;;;;;34.58;21.17;;;;;;;14.50;90.89;101951.34;6184024;23;20005;-75
2021/09/08 05:47:29;;;;;;;31.88;20.75;;;;;;;14.54;90.99;101948.75;6183522;23;20093;-76
2021/09/08 05:49:55;;;;;;;33.35;20.67;;;;;;;14.62;90.70;101941.81;6183987;23;20051;-76
2021/09/08 05:52:20;;;;;;;32.08;20.23;;;;;;;14.65;90.65;101944.59;6184601;23;20013;-75
2021/09/08 05:54:46;;;;;;;37.75;22.02;;;;;;;14.67;90.43;101942.84;6183788;23;20037;-76
2021/09/08 05:57:12;;;;;;;37.05;22.10;;;;;;;14.68;90.40;101934.03;6185045;23;20008;-75
2021/09/08 05:59:37;;;;;;;37.60;21.75;;;;;;;14.71;90.27;101942.03;6184119;23;20417;-75
2021/09/08 06:02:03;;;;;;;33.72;21.70;;;;;;;14.75;90.62;101943.84;6180689;23;20008;-77
2021/09/08 06:04:28;;;;;;;30.45;21.45;;;;;;;14.78;90.41;101940.38;6182941;23;20004;-77
2021/09/08 06:06:55;;;;;;;33.30;20.90;;;;;;;14.80;90.65;101936.88;6184045;23;20005;-76
2021/09/08 06:09:21;;;;;;;34.55;22.00;;;;;;;14.82;90.31;101939.56;6183888;23;20452;-79
2021/09/08 06:11:46;;;;;;;32.20;21.33;;;;;;;14.92;90.20;101944.16;6184783;23;20001;-78
2021/09/08 06:14:13;;;;;;;30.60;19.75;;;;;;;14.98;90.12;101943.34;6184398;23;20431;-77
2021/09/08 06:16:39;;;;;;;30.95;20.00;;;;;;;15.04;90.06;101945.19;6185379;23;20012;-76
2021/09/08 06:19:25;;;;;;;38.58;21.88;;;;;;;15.14;89.50;101937.41;6184493;23;20043;-77
2021/09/08 06:21:50;;;;;;;33.15;20.48;;;;;;;15.21;89.05;101940.19;6184170;23;20091;-77
2021/09/08 06:24:15;;;;;;;37.47;20.63;;;;;;;15.28;88.97;101936.72;6183324;23;20047;-77
2021/09/08 06:26:49;;;;;;;35.65;21.23;;;;;;;15.30;88.68;101938.53;6191939;23;20005;-77
2021/09/08 06:29:16;;;;;;;33.45;20.85;;;;;;;15.39;88.67;101931.59;6184461;23;20005;-76
2021/09/08 06:31:41;;;;;;;33.53;21.67;;;;;;;15.42;88.91;101932.50;6182397;23;20009;-76
2021/09/08 06:34:07;;;;;;;32.45;20.33;;;;;;;15.47;88.83;101933.47;6182799;23;20415;-77
2021/09/08 06:36:32;;;;;;;32.65;21.17;;;;;;;15.50;89.22;101930.88;6157607;23;20364;-75
2021/09/08 06:38:58;;;;;;;34.03;22.27;;;;;;;15.55;89.18;101930.03;6157615;23;20013;-77
2021/09/08 06:41:23;;;;;;;33.83;21.67;;;;;;;15.57;89.44;101925.63;6183825;23;20001;-76
2021/09/08 06:43:49;;;;;;;34.45;21.52;;;;;;;15.64;88.62;101922.19;6183997;23;20047;-76
2021/09/08 06:46:16;;;;;;;29.98;20.85;;;;;;;15.72;88.60;101919.63;6182822;23;20005;-76
2021/09/08 06:48:43;;;;;;;33.63;21.88;;;;;;;15.79;88.42;101918.81;6185384;23;20337;-75
2021/09/08 06:51:08;;;;;;;35.15;22.98;;;;;;;15.88;88.11;101916.31;6175480;23;20059;-76
2021/09/08 06:53:33;;;;;;;35.15;21.85;;;;;;;15.93;88.31;101916.41;6183346;23;20084;-77
2021/09/08 06:55:59;;;;;;;34.08;21.00;;;;;;;16.00;88.29;101911.16;6183853;23;20066;-75
2021/09/08 06:58:24;;;;;;;34.42;21.75;;;;;;;16.10;87.75;101911.25;6183373;23;20027;-76
2021/09/08 07:00:50;;;;;;;28.50;20.45;;;;;;;16.19;87.76;101911.34;6177006;23;20035;-75
2021/09/08 07:03:15;;;;;;;31.80;21.80;;;;;;;16.31;86.95;101910.59;6183537;23;20005;-74
2021/09/08 07:05:41;;;;;;;29.55;20.55;;;;;;;16.40;86.39;101905.38;6183221;23;20004;-75
2021/09/08 07:08:09;;;;;;;31.40;21.92;;;;;;;16.49;86.68;101897.50;6179460;23;20009;-76
2021/09/08 07:10:34;;;;;;;33.78;21.08;;;;;;;16.62;86.01;101900.25;6180981;23;20062;-76
2021/09/08 07:13:00;;;;;;;29.58;20.67;;;;;;;16.70;86.38;101903.88;6180997;23;20000;-75
2021/09/08 07:15:25;;;;;;;37.40;22.60;;;;;;;16.77;86.18;101900.38;6178974;23;20467;-77
2021/09/08 07:17:50;;;;;;;36.15;20.92;;;;;;;16.85;86.40;101898.66;6178918;23;20015;-76
2021/09/08 07:20:16;;;;;;;30.98;20.60;;;;;;;17.00;84.95;101891.72;6180682;23;20507;-76
2021/09/08 07:22:41;;;;;;;29.70;19.50;;;;;;;17.24;82.98;101884.75;6180477;23;20089;-75
2021/09/08 07:25:07;;;;;;;33.95;19.85;;;;;;;17.41;82.04;101883.09;6180707;23;19996;-75
2021/09/08 07:27:33;;;;;;;33.15;20.02;;;;;;;17.55;81.35;101879.59;6182780;23;20008;-75
2021/09/08 07:29:58;;;;;;;37.28;19.83;;;;;;;17.67;80.45;101874.31;6181982;23;19993;-76
2021/09/08 07:32:24;;;;;;;37.00;19.83;;;;;;;17.80;79.40;101865.50;6180893;23;20016;-75
2021/09/08 07:34:49;;;;;;;28.58;18.30;;;;;;;17.89;79.25;101869.94;6177960;23;20001;-75
2021/09/08 07:37:16;;;;;;;30.33;19.58;;;;;;;17.96;79.71;101870.88;6180573;23;20012;-75
2021/09/08 07:39:42;;;;;;;29.23;18.13;;;;;;;18.09;78.08;101861.16;6179971;23;20004;-75
2021/09/08 07:42:07;;;;;;;24.90;17.00;;;;;;;18.22;76.93;101862.97;6179125;23;20343;-75
2021/09/08 07:44:33;;;;;;;30.00;17.90;;;;;;;18.35;76.63;101858.50;6179089;23;20009;-76
2021/09/08 07:46:58;;;;;;;28.88;18.20;;;;;;;18.42;76.74;101862.97;6182111;23;20005;-76
2021/09/08 07:49:24;;;;;;;29.08;18.08;;;;;;;18.48;76.37;101864.75;6180646;23;20068;-75
2021/09/08 07:51:49;;;;;;;27.25;18.52;;;;;;;18.56;75.34;101848.72;6180069;23;20417;-76
2021/09/08 07:54:14;;;;;;;28.13;18.65;;;;;;;18.64;75.69;101854.97;6178621;23;20009;-75
2021/09/08 07:56:40;;;;;;;25.00;16.60;;;;;;;18.72;75.17;101847.84;6177182;23;20001;-74
2021/09/08 07:59:05;;;;;;;27.52;17.65;;;;;;;18.77;75.08;101855.84;6176934;23;20001;-77
2021/09/08 08:01:33;;;;;;;25.73;18.05;;;;;;;18.84;75.20;101861.16;6171848;23;20093;-76
2021/09/08 08:03:59;;;;;;;30.95;18.50;;;;;;;19.04;73.27;101852.25;6178660;23;20059;-74
2021/09/08 08:06:25;;;;;;;25.95;17.58;;;;;;;19.17;72.80;101850.47;6182360;23;20414;-76
2021/09/08 08:08:50;;;;;;;25.25;17.58;;;;;;;19.20;74.01;101853.13;6182969;23;20106;-76
2021/09/08 08:11:16;;;;;;;24.60;17.67;;;;;;;19.44;71.66;101846.81;6177188;23;20012;-74
2021/09/08 08:13:42;;;;;;;31.30;17.33;;;;;;;19.51;71.88;101853.00;6177922;23;20004;-75
2021/09/08 08:16:08;;;;;;;23.17;17.05;;;;;;;19.60;70.80;101847.63;6177234;23;20009;-75
2021/09/08 08:18:33;;;;;;;30.40;18.15;;;;;;;19.65;70.79;101848.47;6177885;23;20008;-76
2021/09/08 08:20:59;;;;;;;25.15;16.80;;;;;;;19.71;71.59;101850.25;6180023;23;20017;-75
2021/09/08 08:23:24;;;;;;;29.13;16.52;;;;;;;19.80;72.67;101852.88;6181588;23;20045;-75
2021/09/08 08:25:50;;;;;;;25.05;17.98;;;;;;;19.91;72.27;101862.63;6182313;23;20001;-76
2021/09/08 08:28:15;;;;;;;25.13;17.48;;;;;;;19.99;72.03;101853.63;6180100;23;20424;-74
2021/09/08 08:30:41;;;;;;;28.33;19.08;;;;;;;20.06;71.33;101846.47;6182630;23;20421;-76
2021/09/08 08:33:06;;;;;;;33.35;17.60;;;;;;;20.23;71.92;101853.50;6180224;23;20005;-76
2021/09/08 08:35:33;;;;;;;26.70;18.02;;;;;;;20.33;70.13;101847.19;6182098;23;20001;-75
2021/09/08 08:37:58;;;;;;;25.63;17.85;;;;;;;20.48;70.53;101839.03;6183266;23;20005;-74
2021/09/08 08:40:27;;;;;;;23.85;17.40;;;;;;;20.66;70.36;101845.09;6184303;23;20001;-75
2021/09/08 08:42:53;;;;;;;28.48;17.42;;;;;;;20.86;69.66;101843.16;6182871;23;20005;-75
2021/09/08 08:45:18;;;;;;;22.42;16.38;;;;;;;21.08;69.01;101834.91;6183001;23;20029;-76
2021/09/08 08:47:44;;;;;;;26.23;17.30;;;;;;;21.31;68.11;101834.63;6183263;23;20455;-75
2021/09/08 08:50:13;;;;;;;26.60;16.98;;;;;;;21.60;66.96;101829.84;6184680;23;20032;-76
2021/09/08 08:52:40;;;;;;;27.25;16.33;;;;;;;21.98;66.27;101829.28;6182997;23;20013;-77
2021/09/08 08:55:07;;;;;;;28.00;16.55;;;;;;;22.19;64.56;101822.69;6184280;23;20027;-76
2021/09/08 08:57:32;;;;;;;30.15;16.27;;;;;;;22.39;64.33;101816.13;6184054;23;20047;-75
2021/09/08 08:59:58;;;;;;;22.30;15.95;;;;;;;22.35;63.47;101815.28;6185762;23;20005;-76
2021/09/08 09:02:31;;;;;;;23.10;16.20;;;;;;;22.22;62.47;101816.41;6177517;23;20424;-76
2021/09/08 09:05:00;;;;;;;22.77;15.65;;;;;;;22.34;63.84;101817.97;6185277;23;20009;-76
2021/09/08 09:07:28;;;;;;;22.25;15.40;;;;;;;22.36;63.24;101816.19;6186233;23;20075;-76
2021/09/08 09:10:06;;;;;;;23.17;16.45;;;;;;;22.48;62.96;101817.78;6186182;23;20028;-76
2021/09/08 09:12:35;;;;;;;21.33;15.73;;;;;;;22.54;61.79;101810.50;6185685;23;20008;-76
2021/09/08 09:15:10;;;;;;;23.98;15.35;;;;;;;22.79;63.24;101823.47;6186950;23;20004;-76
2021/09/08 09:17:36;;;;;;;24.23;16.65;;;;;;;23.09;62.64;101821.09;6186534;23;20005;-76
2021/09/08 09:20:14;;;;;;;24.48;15.10;;;;;;;23.47;59.26;101808.69;6185961;23;20009;-75
2021/09/08 09:22:44;;;;;;;24.85;15.57;;;;;;;23.61;58.76;101799.44;6184749;23;20377;-77
2021/09/08 09:25:12;;;;;;;20.75;15.23;;;;;;;23.85;57.78;101798.00;6185253;23;20037;-76
2021/09/08 09:27:43;;;;;;;19.55;15.50;;;;;;;24.24;57.63;101790.78;6186118;23;20027;-76
2021/09/08 09:30:11;;;;;;;21.95;14.65;;;;;;;24.64;56.30;101794.25;6185753;23;20012;-76
2021/09/08 09:32:39;;;;;;;21.17;14.65;;;;;;;25.09;56.10;101798.38;6185721;23;20036;-76
2021/09/08 09:35:10;;;;;;;25.35;14.45;;;;;;;25.17;53.93;101793.66;6185986;23;20035;-76
2021/09/08 09:37:57;;;;;;;26.30;15.20;;;;;;;25.51;51.81;101784.56;6185132;23;20005;-76
2021/09/08 09:40:34;;;;;;;21.67;13.88;;;;;;;26.33;50.96;101786.44;6185804;23;20008;-75
2021/09/08 09:43:13;;;;;;;25.02;14.45;;;;;;;27.28;48.39;101782.13;6186222;23;20052;-76
2021/09/08 09:45:40;;;;;;;24.42;14.77;;;;;;;27.75;45.67;101783.91;6185244;23;20333;-75
2021/09/08 09:48:07;;;;;;;21.27;13.88;;;;;;;27.63;44.57;101773.56;6185201;23;20028;-75
2021/09/08 09:50:32;;;;;;;16.40;12.30;;;;;;;28.61;43.92;101776.69;6185494;23;20068;-76
2021/09/08 09:52:59;;;;;;;17.95;13.95;;;;;;;28.81;42.21;101769.50;6186052;23;20397;-75
2021/09/08 09:55:26;;;;;;;16.48;12.50;;;;;;;28.91;41.81;101762.72;6185777;23;20429;-76
2021/09/08 09:57:53;;;;;;;29.33;14.15;;;;;;;29.44;41.29;101769.31;6184454;23;20504;-77
2021/09/08 10:00:18;;;;;;;18.58;13.30;;;;;;;29.86;39.45;101757.31;6179742;23;20084;-76
2021/09/08 10:02:45;;;;;;;15.90;12.20;;;;;;;30.60;38.81;101764.38;6180284;23;20032;-76
2021/09/08 10:05:12;;;;;;;14.85;11.48;;;;;;;30.34;38.93;101746.72;6183053;23;20063;-76
2021/09/08 10:07:38;;;;;;;18.77;12.30;;;;;;;30.22;38.16;101745.53;6182880;23;20008;-76
2021/09/08 10:10:16;;;;;;;16.63;11.98;;;;;;;30.53;38.63;101746.63;6182183;23;20001;-76
2021/09/08 10:12:52;;;;;;;17.73;12.80;;;;;;;30.26;38.50;101748.94;6183999;23;20108;-75
2021/09/08 10:15:20;;;;;;;14.55;12.30;;;;;;;30.88;36.92;101752.00;6182078;23;20496;-75
2021/09/08 10:17:47;;;;;;;18.65;11.10;;;;;;;31.22;35.91;101743.84;6182836;23;20076;-80
2021/09/08 10:20:26;;;;;;;19.95;13.25;;;;;;;31.69;34.79;101737.53;6181804;23;20040;-79
2021/09/08 10:22:52;;;;;;;17.50;12.98;;;;;;;31.52;35.03;101738.47;6181939;23;20047;-77
2021/09/08 10:25:22;;;;;;;16.65;11.80;;;;;;;31.15;35.42;101732.44;6182993;23;20005;-77
2021/09/08 10:27:52;;;;;;;14.05;12.05;;;;;;;30.71;36.91;101725.78;6183880;23;20052;-76
2021/09/08 10:30:38;;;;;;;14.00;11.32;;;;;;;31.57;36.29;101719.19;6183944;23;20005;-77
2021/09/08 10:33:05;;;;;;;20.52;12.18;;;;;;;31.46;34.36;101708.94;6183357;23;20420;-80
2021/09/08 10:35:54;;;;;;;15.48;10.55;;;;;;;32.07;34.79;101714.44;6183294;23;20005;-80
2021/09/08 10:38:39;;;;;;;15.52;11.15;;;;;;;32.27;33.87;101707.78;6156567;23;20009;-78
2021/09/08 10:41:35;;;;;;;17.90;11.18;;;;;;;32.35;34.45;101699.16;6182714;23;20085;-79
2021/09/08 10:44:01;;;;;;;15.30;11.35;;;;;;;32.66;33.19;101705.41;6183361;23;20013;-81
2021/09/08 10:46:47;;;;;;;21.92;11.23;;;;;;;32.42;33.88;101690.50;6183731;23;20024;-79
2021/09/08 10:49:39;;;;;;;14.20;11.05;;;;;;;32.67;33.29;101693.53;6184130;23;20028;-79
2021/09/08 10:52:36;;;;;;;18.90;10.70;;;;;;;33.35;32.97;101686.47;6182575;23;20005;-79
2021/09/08 10:55:02;;;;;;;13.55;11.00;;;;;;;32.51;33.10;101686.31;6183300;23;20080;-80
2021/09/08 10:57:42;;;;;;;18.70;11.38;;;;;;;32.54;32.91;101675.22;6183121;23;20483;-80
2021/09/08 11:00:09;;;;;;;14.48;9.95;;;;;;;33.16;32.06;101675.88;6177864;23;20353;-81
2021/09/08 11:02:44;;;;;;;13.45;9.85;;;;;;;33.86;32.54;101670.28;6182982;23;20009;-79
2021/09/08 11:05:13;;;;;;;14.52;10.48;;;;;;;33.87;30.45;101666.56;6184603;23;20193;-78
2021/09/08 11:07:57;;;;;;;12.43;9.85;;;;;;;33.84;29.95;101668.63;6184222;23;20009;-79
2021/09/08 11:10:27;;;;;;;15.70;10.75;;;;;;;34.01;34.17;101670.19;6157460;23;20009;-76
2021/09/08 11:12:56;;;;;;;21.92;9.55;;;;;;;34.37;31.56;101665.88;6183663;23;20282;-77
2021/09/08 11:15:37;;;;;;;22.05;9.88;;;;;;;34.62;30.58;101662.25;6183886;23;20420;-77